createdAt,value
2023-03-01T00:04:15.400Z,1.98
2023-03-01T00:09:18.876Z,2.38
2023-03-01T00:14:21.816Z,2.24
2023-03-01T00:19:26.211Z,2.20
2023-03-01T00:24:28.918Z,2.40
2023-03-01T00:29:31.516Z,2.27
2023-03-01T00:34:38.720Z,1.79
2023-03-01T00:39:41.345Z,2.24
2023-03-01T00:44:44.685Z,2.24
2023-03-01T00:49:51.171Z,2.08
2023-03-01T00:54:54.934Z,1.61
2023-03-01T00:59:58.066Z,2.15
2023-03-01T01:05:03.383Z,2.01
2023-03-01T01:10:07.071Z,1.52
2023-03-01T01:15:13.377Z,1.96
2023-03-01T01:20:17.707Z,1.96
2023-03-01T01:25:20.739Z,1.99
2023-03-01T01:30:23.401Z,1.78
2023-03-01T01:35:27.447Z,1.61
2023-03-01T01:40:30.059Z,1.62
2023-03-01T01:45:35.605Z,1.83
2023-03-01T01:50:42.423Z,1.64
2023-03-01T01:55:49.371Z,1.50
2023-03-01T02:00:51.946Z,1.62
2023-03-01T02:06:00.471Z,1.56
2023-03-01T02:11:05.089Z,1.13
2023-03-01T02:16:11.322Z,1.54
2023-03-01T02:21:27.141Z,1.54
2023-03-01T02:26:38.852Z,1.38
2023-03-01T02:31:45.923Z,1.45
2023-03-01T02:36:51.555Z,1.26
2023-03-01T02:41:56.842Z,0.84
2023-03-01T02:47:04.346Z,1.42
2023-03-01T02:52:31.906Z,0.75
2023-03-01T02:57:37.284Z,0.74
2023-03-01T03:02:41.842Z,1.17
2023-03-01T03:08:09.045Z,1.25
2023-03-01T03:13:14.779Z,0.88
2023-03-01T03:18:19.716Z,1.38
2023-03-01T03:23:23.926Z,1.42
2023-03-01T03:28:26.584Z,0.54
2023-03-01T03:33:30.775Z,0.96
2023-03-01T03:38:36.638Z,1.00
2023-03-01T03:43:43.486Z,1.07
2023-03-01T03:48:48.085Z,1.09
2023-03-01T03:53:50.767Z,1.37
2023-03-01T03:58:53.429Z,1.21
2023-03-01T04:03:57.390Z,1.32
2023-03-01T04:09:03.318Z,1.19
2023-03-01T04:14:06.011Z,0.60
2023-03-01T04:19:10.441Z,0.34
2023-03-01T04:24:13.488Z,1.22
2023-03-01T04:29:16.105Z,1.21
2023-03-01T04:34:20.372Z,1.20
2023-03-01T04:39:23.450Z,1.16
2023-03-01T04:44:29.641Z,1.13
2023-03-01T04:49:33.701Z,1.04
2023-03-01T04:54:37.341Z,0.88
2023-03-01T04:59:40.112Z,0.75
2023-03-01T05:04:44.276Z,0.95
2023-03-01T05:09:47.443Z,0.40
2023-03-01T05:14:51.983Z,0.72
2023-03-01T05:19:56.594Z,0.82
2023-03-01T05:24:59.523Z,0.95
2023-03-01T05:30:14.085Z,0.48
2023-03-01T05:35:19.971Z,0.79
2023-03-01T05:40:25.048Z,0.76
2023-03-01T05:45:29.434Z,0.61
2023-03-01T05:50:35.579Z,0.73
2023-03-01T05:56:12.434Z,-0.76
2023-03-01T06:01:15.255Z,0.71
2023-03-01T06:06:19.762Z,0.83
2023-03-01T06:11:22.941Z,0.98
2023-03-01T06:16:25.587Z,0.91
2023-03-01T06:21:29.642Z,0.72
2023-03-01T06:26:32.654Z,0.31
2023-03-01T06:31:35.820Z,0.72
2023-03-01T06:36:39.950Z,0.93
2023-03-01T06:41:42.652Z,0.45
2023-03-01T06:46:45.309Z,0.81
2023-03-01T06:51:49.397Z,1.07
2023-03-01T06:56:52.505Z,1.20
2023-03-01T07:01:55.261Z,1.27
2023-03-01T07:07:01.995Z,0.63
2023-03-01T07:12:04.960Z,1.41
2023-03-01T07:17:10.123Z,1.52
2023-03-01T07:22:14.162Z,1.48
2023-03-01T07:27:16.829Z,1.50
2023-03-01T07:32:22.460Z,1.57
2023-03-01T07:37:26.552Z,1.76
2023-03-01T07:42:29.277Z,1.86
2023-03-01T07:47:32.444Z,1.91
2023-03-01T07:52:36.587Z,2.00
2023-03-01T07:57:39.325Z,2.23
2023-03-01T08:02:42.920Z,1.07
2023-03-01T08:07:47.415Z,2.26
2023-03-01T08:13:06.485Z,2.08
2023-03-01T08:18:09.801Z,2.48
2023-03-01T08:23:14.289Z,2.37
2023-03-01T08:28:17.054Z,2.42
2023-03-01T08:33:19.732Z,2.53
2023-03-01T08:38:23.689Z,1.60
2023-03-01T08:43:26.559Z,2.93
2023-03-01T08:48:29.934Z,3.06
2023-03-01T08:53:33.949Z,3.15
2023-03-01T09:05:23.258Z,2.88
2023-03-01T09:24:02.139Z,3.76
2023-03-01T09:29:05.031Z,2.65
2023-03-01T09:34:10.599Z,2.61
2023-03-01T09:39:14.948Z,2.95
2023-03-01T09:44:29.622Z,4.30
2023-03-01T09:49:37.537Z,4.12
2023-03-01T09:54:41.636Z,4.10
2023-03-01T09:59:58.109Z,4.37
2023-03-01T10:05:14.882Z,4.74
2023-03-01T10:10:29.913Z,4.34
2023-03-01T10:15:37.926Z,5.01
2023-03-01T10:20:48.741Z,4.50
2023-03-01T10:26:27.372Z,5.09
2023-03-01T10:31:40.077Z,4.87
2023-03-01T10:36:44.791Z,4.70
2023-03-01T10:42:00.714Z,5.28
2023-03-01T10:47:03.524Z,4.87
2023-03-01T10:52:20.592Z,5.42
2023-03-01T10:57:51.308Z,5.48
2023-03-01T11:03:12.113Z,5.40
2023-03-01T11:08:15.287Z,5.59
2023-03-01T11:13:23.529Z,5.73
2023-03-01T11:18:44.265Z,5.31
2023-03-01T11:23:49.363Z,5.61
2023-03-01T11:29:02.842Z,5.75
2023-03-01T11:34:13.677Z,5.86
2023-03-01T11:39:29.229Z,6.42
2023-03-01T11:44:38.538Z,4.77
2023-03-01T11:49:56.097Z,5.94
2023-03-01T11:55:14.655Z,6.67
2023-03-01T12:00:29.928Z,6.62
2023-03-01T12:06:00.567Z,7.46
2023-03-01T12:11:18.638Z,7.87
2023-03-01T12:16:39.033Z,7.80
2023-03-01T12:21:53.984Z,7.30
2023-03-01T12:27:13.658Z,7.72
2023-03-01T12:32:32.008Z,7.92
2023-03-01T12:38:00.112Z,8.28
2023-03-01T12:43:19.423Z,8.44
2023-03-01T12:48:42.207Z,8.47
2023-03-01T12:53:49.438Z,8.09
2023-03-01T12:59:02.549Z,8.69
2023-03-01T13:04:21.244Z,8.55
2023-03-01T13:09:32.341Z,9.02
2023-03-01T13:14:46.123Z,8.66
2023-03-01T13:19:59.904Z,9.59
2023-03-01T13:25:16.640Z,9.35
2023-03-01T13:30:43.806Z,9.41
2023-03-01T13:35:48.969Z,9.78
2023-03-01T13:41:01.956Z,9.82
2023-03-01T13:46:12.112Z,10.00
2023-03-01T13:51:16.446Z,9.78
2023-03-01T13:56:26.976Z,9.63
2023-03-01T14:01:31.809Z,9.89
2023-03-01T14:06:37.245Z,10.38
2023-03-01T14:12:06.379Z,9.97
2023-03-01T14:17:36.059Z,10.19
2023-03-01T14:22:48.201Z,10.43
2023-03-01T14:27:58.165Z,10.74
2023-03-01T14:33:02.511Z,10.48
2023-03-01T14:38:06.656Z,10.61
2023-03-01T14:43:12.856Z,10.67
2023-03-01T14:48:15.898Z,10.49
2023-03-01T14:53:27.762Z,10.39
2023-03-01T14:58:30.783Z,9.63
2023-03-01T15:03:39.152Z,10.43
2023-03-01T15:08:53.035Z,10.40
2023-03-01T15:14:05.172Z,10.29
2023-03-01T15:26:16.755Z,6.99
2023-03-01T15:31:43.916Z,7.99
2023-03-01T15:36:54.779Z,8.41
2023-03-01T15:42:28.831Z,9.30
2023-03-01T15:54:59.981Z,8.89
2023-03-01T16:06:14.655Z,7.92
2023-03-01T16:11:24.992Z,8.44
2023-03-01T16:16:33.739Z,8.33
2023-03-01T16:21:53.775Z,8.18
2023-03-01T16:26:57.415Z,8.27
2023-03-01T16:32:27.730Z,8.06
2023-03-01T16:37:37.887Z,7.63
2023-03-01T16:42:44.434Z,7.10
2023-03-01T16:48:10.595Z,7.13
2023-03-01T16:53:15.028Z,7.67
2023-03-01T16:58:19.882Z,7.34
2023-03-01T17:03:26.773Z,7.09
2023-03-01T17:08:32.610Z,5.91
2023-03-01T17:13:36.472Z,7.20
2023-03-01T17:18:39.805Z,7.00
2023-03-01T17:23:48.096Z,6.30
2023-03-01T17:28:52.352Z,6.99
2023-03-01T17:33:57.500Z,6.58
2023-03-01T17:39:05.708Z,6.84
2023-03-01T17:44:16.795Z,6.22
2023-03-01T17:49:19.994Z,5.25
2023-03-01T17:54:24.325Z,5.69
2023-03-01T17:59:31.191Z,6.26
2023-03-01T18:04:41.833Z,5.95
2023-03-01T18:09:46.168Z,6.16
2023-03-01T18:14:53.579Z,5.26
2023-03-01T18:19:57.164Z,5.91
2023-03-01T18:25:01.997Z,6.06
2023-03-01T18:30:05.513Z,5.74
2023-03-01T18:35:37.212Z,6.50
2023-03-01T18:40:45.543Z,6.60
2023-03-01T18:45:50.414Z,6.47
2023-03-01T18:50:56.544Z,6.55
2023-03-01T18:56:29.546Z,4.71
2023-03-01T19:08:42.273Z,6.17
2023-03-01T19:13:51.860Z,5.75
2023-03-01T19:18:57.496Z,5.91
2023-03-01T19:24:09.032Z,5.40
2023-03-01T19:29:12.283Z,4.71
2023-03-01T19:34:15.688Z,4.27
2023-03-01T19:39:20.231Z,5.59
2023-03-01T19:44:24.878Z,4.04
2023-03-01T19:49:29.827Z,5.52
2023-03-01T19:54:34.029Z,5.48
2023-03-01T19:59:37.108Z,4.93
2023-03-01T20:04:40.018Z,5.48
2023-03-01T20:09:45.840Z,4.80
2023-03-01T20:14:55.180Z,4.72
2023-03-01T20:19:58.060Z,5.31
2023-03-01T20:25:04.064Z,4.52
2023-03-01T20:30:27.036Z,5.23
2023-03-01T20:35:33.190Z,3.83
2023-03-01T20:41:09.602Z,1.96
2023-03-01T20:46:15.251Z,4.49
2023-03-01T20:51:21.500Z,5.18
2023-03-01T20:56:36.560Z,4.88
2023-03-01T21:01:40.287Z,3.10
2023-03-01T21:06:46.486Z,4.17
2023-03-01T21:11:54.321Z,4.87
2023-03-01T21:17:04.018Z,2.03
2023-03-01T21:22:13.101Z,3.79
2023-03-01T21:27:17.360Z,4.72
2023-03-01T21:32:20.317Z,4.88
2023-03-01T21:37:27.817Z,4.00
2023-03-01T21:42:35.251Z,4.15
2023-03-01T21:47:39.279Z,4.86
2023-03-01T21:52:42.092Z,1.07
2023-03-01T21:57:46.094Z,4.43
2023-03-01T22:02:48.780Z,4.35
2023-03-01T22:07:54.947Z,4.49
2023-03-01T22:13:05.130Z,2.86
2023-03-01T22:18:17.810Z,3.99
2023-03-01T22:23:39.231Z,3.84
2023-03-01T22:28:45.541Z,3.58
2023-03-01T22:33:56.915Z,4.65
2023-03-01T22:39:04.399Z,4.73
2023-03-01T22:44:57.154Z,4.80
2023-03-01T22:50:01.247Z,2.46
2023-03-01T22:55:12.789Z,4.75
2023-03-01T23:00:28.857Z,4.31
2023-03-01T23:05:35.144Z,3.50
2023-03-01T23:10:43.827Z,4.65
2023-03-01T23:16:01.867Z,4.70
2023-03-01T23:21:09.853Z,4.70
2023-03-01T23:26:17.700Z,4.66
2023-03-01T23:31:25.558Z,4.57
2023-03-01T23:36:31.146Z,4.06
2023-03-01T23:41:37.184Z,4.28
2023-03-01T23:46:43.069Z,4.49
2023-03-01T23:51:47.538Z,4.07
2023-03-01T23:56:50.616Z,4.25
